sensor_id;sensor_type;location;lat;lon;timestamp;P1;durP1;ratioP1;P2;durP2;ratioP2
48743;SDS011;34538;48.836;9.174;2022-08-02T00:01:23;2.60;;;1.60;;
48743;SDS011;34538;48.836;9.174;2022-08-02T00:03:49;3.40;;;1.70;;
48743;SDS011;34538;48.836;9.174;2022-08-02T00:06:14;3.70;;;1.80;;
48743;SDS011;34538;48.836;9.174;2022-08-02T00:08:40;8.00;;;1.90;;
48743;SDS011;34538;48.836;9.174;2022-08-02T00:11:06;3.28;;;1.77;;
48743;SDS011;34538;48.836;9.174;2022-08-02T00:13:32;2.90;;;1.73;;
48743;SDS011;34538;48.836;9.174;2022-08-02T00:16:23;1.90;;;1.35;;
48743;SDS011;34538;48.836;9.174;2022-08-02T00:18:48;2.47;;;1.50;;
48743;SDS011;34538;48.836;9.174;2022-08-02T00:21:14;2.55;;;2.00;;
48743;SDS011;34538;48.836;9.174;2022-08-02T00:23:40;2.88;;;1.98;;
48743;SDS011;34538;48.836;9.174;2022-08-02T00:26:06;2.33;;;1.77;;
48743;SDS011;34538;48.836;9.174;2022-08-02T00:28:31;3.67;;;2.20;;
48743;SDS011;34538;48.836;9.174;2022-08-02T00:30:57;3.58;;;2.45;;
48743;SDS011;34538;48.836;9.174;2022-08-02T00:33:23;3.25;;;1.83;;
48743;SDS011;34538;48.836;9.174;2022-08-02T00:35:49;3.35;;;1.60;;
48743;SDS011;34538;48.836;9.174;2022-08-02T00:38:14;4.32;;;1.88;;
48743;SDS011;34538;48.836;9.174;2022-08-02T00:40:40;4.75;;;1.83;;
48743;SDS011;34538;48.836;9.174;2022-08-02T00:43:11;2.30;;;1.77;;
48743;SDS011;34538;48.836;9.174;2022-08-02T00:45:38;4.47;;;2.30;;
48743;SDS011;34538;48.836;9.174;2022-08-02T00:48:05;4.20;;;2.00;;
48743;SDS011;34538;48.836;9.174;2022-08-02T00:50:33;2.80;;;1.80;;
48743;SDS011;34538;48.836;9.174;2022-08-02T00:52:59;5.63;;;2.20;;
48743;SDS011;34538;48.836;9.174;2022-08-02T00:55:25;2.42;;;1.70;;
48743;SDS011;34538;48.836;9.174;2022-08-02T00:57:52;4.68;;;1.98;;
48743;SDS011;34538;48.836;9.174;2022-08-02T01:00:18;3.72;;;1.90;;
48743;SDS011;34538;48.836;9.174;2022-08-02T01:02:44;4.78;;;2.35;;
48743;SDS011;34538;48.836;9.174;2022-08-02T01:05:10;3.65;;;1.90;;
48743;SDS011;34538;48.836;9.174;2022-08-02T01:07:37;2.88;;;2.10;;
48743;SDS011;34538;48.836;9.174;2022-08-02T01:10:03;3.72;;;2.10;;
48743;SDS011;34538;48.836;9.174;2022-08-02T01:12:29;2.60;;;1.75;;
48743;SDS011;34538;48.836;9.174;2022-08-02T01:14:56;2.28;;;1.85;;
48743;SDS011;34538;48.836;9.174;2022-08-02T01:17:45;3.72;;;1.83;;
48743;SDS011;34538;48.836;9.174;2022-08-02T01:20:40;3.70;;;1.92;;
48743;SDS011;34538;48.836;9.174;2022-08-02T01:28:53;2.58;;;1.60;;
48743;SDS011;34538;48.836;9.174;2022-08-02T01:32:05;4.00;;;2.42;;
48743;SDS011;34538;48.836;9.174;2022-08-02T01:34:12;4.43;;;2.00;;
48743;SDS011;34538;48.836;9.174;2022-08-02T01:36:42;4.53;;;2.00;;
48743;SDS011;34538;48.836;9.174;2022-08-02T01:39:12;3.22;;;1.63;;
48743;SDS011;34538;48.836;9.174;2022-08-02T01:41:42;4.43;;;2.03;;
48743;SDS011;34538;48.836;9.174;2022-08-02T01:44:09;2.70;;;2.45;;
48743;SDS011;34538;48.836;9.174;2022-08-02T01:46:37;2.63;;;1.70;;
48743;SDS011;34538;48.836;9.174;2022-08-02T01:49:06;3.40;;;1.85;;
48743;SDS011;34538;48.836;9.174;2022-08-02T01:51:38;2.83;;;2.05;;
48743;SDS011;34538;48.836;9.174;2022-08-02T01:54:24;4.53;;;2.25;;
48743;SDS011;34538;48.836;9.174;2022-08-02T01:56:53;4.95;;;1.70;;
48743;SDS011;34538;48.836;9.174;2022-08-02T01:59:20;4.28;;;2.15;;
48743;SDS011;34538;48.836;9.174;2022-08-02T02:02:13;3.83;;;2.10;;
48743;SDS011;34538;48.836;9.174;2022-08-02T02:04:40;4.00;;;2.38;;
48743;SDS011;34538;48.836;9.174;2022-08-02T02:07:07;3.75;;;2.17;;
48743;SDS011;34538;48.836;9.174;2022-08-02T02:09:37;2.85;;;1.73;;
48743;SDS011;34538;48.836;9.174;2022-08-02T02:12:04;4.35;;;2.03;;
48743;SDS011;34538;48.836;9.174;2022-08-02T02:14:31;3.25;;;2.00;;
48743;SDS011;34538;48.836;9.174;2022-08-02T02:16:58;3.53;;;2.05;;
48743;SDS011;34538;48.836;9.174;2022-08-02T02:19:26;4.25;;;2.20;;
48743;SDS011;34538;48.836;9.174;2022-08-02T02:21:53;2.60;;;1.90;;
48743;SDS011;34538;48.836;9.174;2022-08-02T02:24:20;3.75;;;2.38;;
48743;SDS011;34538;48.836;9.174;2022-08-02T02:26:45;3.33;;;1.95;;
48743;SDS011;34538;48.836;9.174;2022-08-02T02:29:12;2.65;;;1.90;;
48743;SDS011;34538;48.836;9.174;2022-08-02T02:31:41;4.20;;;2.10;;
48743;SDS011;34538;48.836;9.174;2022-08-02T02:34:14;4.07;;;1.90;;
48743;SDS011;34538;48.836;9.174;2022-08-02T02:36:51;3.78;;;1.80;;
48743;SDS011;34538;48.836;9.174;2022-08-02T02:39:19;2.90;;;1.95;;
48743;SDS011;34538;48.836;9.174;2022-08-02T02:41:47;2.50;;;1.85;;
48743;SDS011;34538;48.836;9.174;2022-08-02T02:44:15;3.00;;;2.08;;
48743;SDS011;34538;48.836;9.174;2022-08-02T02:46:44;3.58;;;1.75;;
48743;SDS011;34538;48.836;9.174;2022-08-02T02:49:12;2.45;;;1.50;;
48743;SDS011;34538;48.836;9.174;2022-08-02T02:51:40;4.95;;;2.30;;
48743;SDS011;34538;48.836;9.174;2022-08-02T02:54:07;4.03;;;1.83;;
48743;SDS011;34538;48.836;9.174;2022-08-02T02:56:36;2.95;;;1.83;;
48743;SDS011;34538;48.836;9.174;2022-08-02T02:59:02;4.22;;;2.10;;
48743;SDS011;34538;48.836;9.174;2022-08-02T03:01:28;3.42;;;2.33;;
48743;SDS011;34538;48.836;9.174;2022-08-02T03:03:56;3.75;;;2.25;;
48743;SDS011;34538;48.836;9.174;2022-08-02T03:06:25;5.93;;;2.30;;
48743;SDS011;34538;48.836;9.174;2022-08-02T03:08:52;4.22;;;1.75;;
48743;SDS011;34538;48.836;9.174;2022-08-02T03:11:18;3.45;;;1.90;;
48743;SDS011;34538;48.836;9.174;2022-08-02T03:13:44;3.40;;;1.80;;
48743;SDS011;34538;48.836;9.174;2022-08-02T03:16:11;2.45;;;1.80;;
48743;SDS011;34538;48.836;9.174;2022-08-02T03:18:40;2.83;;;2.00;;
48743;SDS011;34538;48.836;9.174;2022-08-02T03:23:35;2.35;;;1.70;;
48743;SDS011;34538;48.836;9.174;2022-08-02T03:26:02;2.60;;;1.77;;
48743;SDS011;34538;48.836;9.174;2022-08-02T03:28:28;3.75;;;1.92;;
48743;SDS011;34538;48.836;9.174;2022-08-02T03:30:55;3.42;;;1.92;;
48743;SDS011;34538;48.836;9.174;2022-08-02T03:33:20;2.92;;;2.00;;
48743;SDS011;34538;48.836;9.174;2022-08-02T03:36:14;4.05;;;2.30;;
48743;SDS011;34538;48.836;9.174;2022-08-02T03:38:43;3.33;;;1.70;;
48743;SDS011;34538;48.836;9.174;2022-08-02T03:41:10;2.63;;;1.88;;
48743;SDS011;34538;48.836;9.174;2022-08-02T03:43:38;3.75;;;2.20;;
48743;SDS011;34538;48.836;9.174;2022-08-02T03:46:06;4.13;;;2.10;;
48743;SDS011;34538;48.836;9.174;2022-08-02T03:48:32;4.70;;;1.92;;
48743;SDS011;34538;48.836;9.174;2022-08-02T03:51:00;5.63;;;2.13;;
48743;SDS011;34538;48.836;9.174;2022-08-02T03:53:26;4.88;;;2.25;;
48743;SDS011;34538;48.836;9.174;2022-08-02T03:55:52;3.53;;;2.47;;
48743;SDS011;34538;48.836;9.174;2022-08-02T03:58:19;3.85;;;2.15;;
48743;SDS011;34538;48.836;9.174;2022-08-02T04:00:46;4.18;;;2.30;;
48743;SDS011;34538;48.836;9.174;2022-08-02T04:03:13;4.55;;;2.50;;
48743;SDS011;34538;48.836;9.174;2022-08-02T04:05:39;5.13;;;1.90;;
48743;SDS011;34538;48.836;9.174;2022-08-02T04:08:06;6.20;;;2.47;;
48743;SDS011;34538;48.836;9.174;2022-08-02T04:10:32;4.38;;;2.47;;
48743;SDS011;34538;48.836;9.174;2022-08-02T04:13:18;6.10;;;3.00;;
48743;SDS011;34538;48.836;9.174;2022-08-02T04:15:45;5.50;;;2.85;;
48743;SDS011;34538;48.836;9.174;2022-08-02T04:18:13;4.15;;;2.45;;
48743;SDS011;34538;48.836;9.174;2022-08-02T04:20:41;4.25;;;2.63;;
48743;SDS011;34538;48.836;9.174;2022-08-02T04:23:10;4.47;;;2.35;;
48743;SDS011;34538;48.836;9.174;2022-08-02T04:25:39;5.00;;;2.70;;
48743;SDS011;34538;48.836;9.174;2022-08-02T04:28:06;5.30;;;2.53;;
48743;SDS011;34538;48.836;9.174;2022-08-02T04:30:33;4.00;;;2.35;;
48743;SDS011;34538;48.836;9.174;2022-08-02T04:33:00;6.07;;;2.80;;
48743;SDS011;34538;48.836;9.174;2022-08-02T04:35:26;4.45;;;3.00;;
48743;SDS011;34538;48.836;9.174;2022-08-02T04:37:52;4.88;;;2.75;;
48743;SDS011;34538;48.836;9.174;2022-08-02T04:40:19;6.05;;;2.85;;
48743;SDS011;34538;48.836;9.174;2022-08-02T04:42:44;7.60;;;2.88;;
48743;SDS011;34538;48.836;9.174;2022-08-02T04:45:10;6.32;;;3.05;;
48743;SDS011;34538;48.836;9.174;2022-08-02T04:47:36;5.03;;;2.42;;
48743;SDS011;34538;48.836;9.174;2022-08-02T04:50:04;6.57;;;2.45;;
48743;SDS011;34538;48.836;9.174;2022-08-02T04:52:30;5.20;;;2.58;;
48743;SDS011;34538;48.836;9.174;2022-08-02T04:54:55;4.32;;;2.50;;
48743;SDS011;34538;48.836;9.174;2022-08-02T04:57:21;4.38;;;3.13;;
48743;SDS011;34538;48.836;9.174;2022-08-02T05:00:06;6.32;;;3.28;;
48743;SDS011;34538;48.836;9.174;2022-08-02T05:02:33;4.28;;;2.45;;
48743;SDS011;34538;48.836;9.174;2022-08-02T05:04:59;5.20;;;2.33;;
48743;SDS011;34538;48.836;9.174;2022-08-02T05:07:25;4.97;;;2.33;;
48743;SDS011;34538;48.836;9.174;2022-08-02T05:09:51;9.65;;;2.83;;
48743;SDS011;34538;48.836;9.174;2022-08-02T05:12:16;8.13;;;3.08;;
48743;SDS011;34538;48.836;9.174;2022-08-02T05:14:46;6.10;;;2.60;;
48743;SDS011;34538;48.836;9.174;2022-08-02T05:17:12;5.20;;;2.38;;
48743;SDS011;34538;48.836;9.174;2022-08-02T05:19:37;6.00;;;2.63;;
48743;SDS011;34538;48.836;9.174;2022-08-02T05:22:03;4.28;;;2.30;;
48743;SDS011;34538;48.836;9.174;2022-08-02T05:24:29;4.80;;;1.95;;
48743;SDS011;34538;48.836;9.174;2022-08-02T05:26:54;3.67;;;2.30;;
48743;SDS011;34538;48.836;9.174;2022-08-02T05:29:20;4.10;;;2.22;;
48743;SDS011;34538;48.836;9.174;2022-08-02T05:31:46;3.17;;;2.30;;
48743;SDS011;34538;48.836;9.174;2022-08-02T05:34:12;3.40;;;2.38;;
48743;SDS011;34538;48.836;9.174;2022-08-02T05:36:38;2.70;;;1.77;;
48743;SDS011;34538;48.836;9.174;2022-08-02T05:39:04;4.70;;;2.40;;
48743;SDS011;34538;48.836;9.174;2022-08-02T05:41:29;3.92;;;1.90;;
48743;SDS011;34538;48.836;9.174;2022-08-02T05:43:55;3.28;;;2.05;;
48743;SDS011;34538;48.836;9.174;2022-08-02T05:46:20;2.40;;;1.60;;
48743;SDS011;34538;48.836;9.174;2022-08-02T05:48:46;2.13;;;1.63;;
48743;SDS011;34538;48.836;9.174;2022-08-02T05:51:15;3.47;;;2.22;;
48743;SDS011;34538;48.836;9.174;2022-08-02T05:53:53;2.22;;;1.95;;
48743;SDS011;34538;48.836;9.174;2022-08-02T05:56:28;3.67;;;1.85;;
48743;SDS011;34538;48.836;9.174;2022-08-02T05:59:02;2.83;;;1.80;;
48743;SDS011;34538;48.836;9.174;2022-08-02T06:01:31;3.83;;;2.28;;
48743;SDS011;34538;48.836;9.174;2022-08-02T06:04:01;3.00;;;2.00;;
48743;SDS011;34538;48.836;9.174;2022-08-02T06:06:33;2.95;;;2.00;;
48743;SDS011;34538;48.836;9.174;2022-08-02T06:09:00;2.50;;;1.77;;
48743;SDS011;34538;48.836;9.174;2022-08-02T06:11:36;3.60;;;2.15;;
48743;SDS011;34538;48.836;9.174;2022-08-02T06:14:06;3.72;;;1.92;;
48743;SDS011;34538;48.836;9.174;2022-08-02T06:16:34;3.88;;;1.92;;
48743;SDS011;34538;48.836;9.174;2022-08-02T06:19:00;5.57;;;1.80;;
48743;SDS011;34538;48.836;9.174;2022-08-02T06:21:27;2.42;;;1.75;;
48743;SDS011;34538;48.836;9.174;2022-08-02T06:23:54;3.58;;;1.95;;
48743;SDS011;34538;48.836;9.174;2022-08-02T06:26:22;3.42;;;2.30;;
48743;SDS011;34538;48.836;9.174;2022-08-02T06:28:48;3.83;;;2.40;;
48743;SDS011;34538;48.836;9.174;2022-08-02T06:31:19;4.68;;;1.90;;
48743;SDS011;34538;48.836;9.174;2022-08-02T06:33:45;4.05;;;1.52;;
48743;SDS011;34538;48.836;9.174;2022-08-02T06:38:52;2.50;;;1.70;;
48743;SDS011;34538;48.836;9.174;2022-08-02T06:41:25;5.50;;;1.85;;
48743;SDS011;34538;48.836;9.174;2022-08-02T06:43:58;4.35;;;1.80;;
48743;SDS011;34538;48.836;9.174;2022-08-02T06:46:26;2.88;;;2.03;;
48743;SDS011;34538;48.836;9.174;2022-08-02T06:48:52;3.08;;;1.75;;
48743;SDS011;34538;48.836;9.174;2022-08-02T06:51:18;4.78;;;2.10;;
48743;SDS011;34538;48.836;9.174;2022-08-02T06:53:44;4.40;;;1.95;;
48743;SDS011;34538;48.836;9.174;2022-08-02T06:56:10;4.90;;;2.05;;
48743;SDS011;34538;48.836;9.174;2022-08-02T06:58:36;3.72;;;2.20;;
48743;SDS011;34538;48.836;9.174;2022-08-02T07:01:02;4.35;;;2.17;;
48743;SDS011;34538;48.836;9.174;2022-08-02T07:03:34;6.10;;;2.20;;
48743;SDS011;34538;48.836;9.174;2022-08-02T07:06:01;3.13;;;2.17;;
48743;SDS011;34538;48.836;9.174;2022-08-02T07:08:27;6.35;;;2.38;;
48743;SDS011;34538;48.836;9.174;2022-08-02T07:10:59;5.25;;;2.20;;
48743;SDS011;34538;48.836;9.174;2022-08-02T07:13:25;6.70;;;3.42;;
48743;SDS011;34538;48.836;9.174;2022-08-02T07:15:52;7.57;;;3.15;;
48743;SDS011;34538;48.836;9.174;2022-08-02T07:18:18;4.25;;;2.50;;
48743;SDS011;34538;48.836;9.174;2022-08-02T07:20:44;5.60;;;2.50;;
48743;SDS011;34538;48.836;9.174;2022-08-02T07:23:10;4.95;;;2.45;;
48743;SDS011;34538;48.836;9.174;2022-08-02T07:25:36;4.90;;;2.80;;
48743;SDS011;34538;48.836;9.174;2022-08-02T07:28:02;7.50;;;2.40;;
48743;SDS011;34538;48.836;9.174;2022-08-02T07:30:28;4.93;;;2.38;;
48743;SDS011;34538;48.836;9.174;2022-08-02T07:32:57;3.25;;;2.22;;
48743;SDS011;34538;48.836;9.174;2022-08-02T07:35:23;4.32;;;2.30;;
48743;SDS011;34538;48.836;9.174;2022-08-02T07:37:48;6.85;;;2.40;;
48743;SDS011;34538;48.836;9.174;2022-08-02T07:40:14;5.32;;;2.80;;
48743;SDS011;34538;48.836;9.174;2022-08-02T07:42:41;5.40;;;2.80;;
48743;SDS011;34538;48.836;9.174;2022-08-02T07:45:07;6.85;;;2.88;;
48743;SDS011;34538;48.836;9.174;2022-08-02T07:47:37;4.78;;;3.10;;
48743;SDS011;34538;48.836;9.174;2022-08-02T07:50:06;3.85;;;2.70;;
48743;SDS011;34538;48.836;9.174;2022-08-02T07:52:33;6.05;;;2.97;;
48743;SDS011;34538;48.836;9.174;2022-08-02T07:54:58;5.25;;;2.60;;
48743;SDS011;34538;48.836;9.174;2022-08-02T07:57:25;3.50;;;2.75;;
48743;SDS011;34538;48.836;9.174;2022-08-02T07:59:50;5.05;;;2.65;;
48743;SDS011;34538;48.836;9.174;2022-08-02T08:02:16;3.70;;;2.80;;
48743;SDS011;34538;48.836;9.174;2022-08-02T08:04:42;7.80;;;3.00;;
48743;SDS011;34538;48.836;9.174;2022-08-02T08:07:08;8.15;;;2.80;;
48743;SDS011;34538;48.836;9.174;2022-08-02T08:09:36;6.15;;;3.08;;
48743;SDS011;34538;48.836;9.174;2022-08-02T08:12:05;9.27;;;3.15;;
48743;SDS011;34538;48.836;9.174;2022-08-02T08:14:38;4.50;;;3.08;;
48743;SDS011;34538;48.836;9.174;2022-08-02T08:17:04;5.55;;;2.75;;
48743;SDS011;34538;48.836;9.174;2022-08-02T08:19:30;3.35;;;2.38;;
48743;SDS011;34538;48.836;9.174;2022-08-02T08:21:56;4.47;;;2.90;;
48743;SDS011;34538;48.836;9.174;2022-08-02T08:24:25;4.40;;;2.95;;
48743;SDS011;34538;48.836;9.174;2022-08-02T08:26:51;7.55;;;3.30;;
48743;SDS011;34538;48.836;9.174;2022-08-02T08:29:17;5.25;;;3.40;;
48743;SDS011;34538;48.836;9.174;2022-08-02T08:31:42;4.78;;;3.50;;
48743;SDS011;34538;48.836;9.174;2022-08-02T08:34:08;5.20;;;3.35;;
48743;SDS011;34538;48.836;9.174;2022-08-02T08:36:34;5.63;;;4.00;;
48743;SDS011;34538;48.836;9.174;2022-08-02T08:39:00;7.63;;;3.45;;
48743;SDS011;34538;48.836;9.174;2022-08-02T08:41:25;6.18;;;3.88;;
48743;SDS011;34538;48.836;9.174;2022-08-02T08:43:51;4.13;;;3.13;;
48743;SDS011;34538;48.836;9.174;2022-08-02T08:46:20;6.88;;;3.08;;
48743;SDS011;34538;48.836;9.174;2022-08-02T08:48:58;6.28;;;3.95;;
48743;SDS011;34538;48.836;9.174;2022-08-02T08:51:30;5.45;;;3.65;;
48743;SDS011;34538;48.836;9.174;2022-08-02T08:54:01;5.22;;;3.03;;
48743;SDS011;34538;48.836;9.174;2022-08-02T08:56:32;8.73;;;3.70;;
48743;SDS011;34538;48.836;9.174;2022-08-02T08:59:00;5.13;;;3.53;;
48743;SDS011;34538;48.836;9.174;2022-08-02T09:01:27;4.55;;;3.30;;
48743;SDS011;34538;48.836;9.174;2022-08-02T09:03:53;4.85;;;3.53;;
48743;SDS011;34538;48.836;9.174;2022-08-02T09:06:18;4.35;;;3.22;;
48743;SDS011;34538;48.836;9.174;2022-08-02T09:08:44;5.30;;;3.45;;
48743;SDS011;34538;48.836;9.174;2022-08-02T09:11:13;5.53;;;3.60;;
48743;SDS011;34538;48.836;9.174;2022-08-02T09:13:48;7.35;;;3.33;;
48743;SDS011;34538;48.836;9.174;2022-08-02T09:16:14;6.35;;;3.08;;
48743;SDS011;34538;48.836;9.174;2022-08-02T09:18:50;4.65;;;3.33;;
48743;SDS011;34538;48.836;9.174;2022-08-02T09:21:16;5.75;;;3.85;;
48743;SDS011;34538;48.836;9.174;2022-08-02T09:23:43;5.40;;;3.38;;
48743;SDS011;34538;48.836;9.174;2022-08-02T09:26:11;4.90;;;3.10;;
48743;SDS011;34538;48.836;9.174;2022-08-02T09:28:43;5.82;;;3.60;;
48743;SDS011;34538;48.836;9.174;2022-08-02T09:31:11;5.53;;;3.35;;
48743;SDS011;34538;48.836;9.174;2022-08-02T09:33:43;4.88;;;3.42;;
48743;SDS011;34538;48.836;9.174;2022-08-02T09:36:14;4.70;;;3.35;;
48743;SDS011;34538;48.836;9.174;2022-08-02T09:38:50;5.60;;;3.30;;
48743;SDS011;34538;48.836;9.174;2022-08-02T09:41:40;4.72;;;3.47;;
48743;SDS011;34538;48.836;9.174;2022-08-02T09:44:09;4.28;;;3.20;;
48743;SDS011;34538;48.836;9.174;2022-08-02T09:46:40;5.07;;;3.40;;
48743;SDS011;34538;48.836;9.174;2022-08-02T09:49:07;5.43;;;3.40;;
48743;SDS011;34538;48.836;9.174;2022-08-02T09:54:19;5.47;;;3.00;;
48743;SDS011;34538;48.836;9.174;2022-08-02T09:56:46;7.33;;;3.40;;
48743;SDS011;34538;48.836;9.174;2022-08-02T09:59:14;5.88;;;3.45;;
48743;SDS011;34538;48.836;9.174;2022-08-02T10:01:41;6.80;;;4.15;;
48743;SDS011;34538;48.836;9.174;2022-08-02T10:04:09;4.50;;;3.38;;
48743;SDS011;34538;48.836;9.174;2022-08-02T10:06:39;5.65;;;3.83;;
48743;SDS011;34538;48.836;9.174;2022-08-02T10:09:07;3.90;;;3.47;;
48743;SDS011;34538;48.836;9.174;2022-08-02T10:11:35;5.60;;;3.50;;
48743;SDS011;34538;48.836;9.174;2022-08-02T10:14:04;4.43;;;3.53;;
48743;SDS011;34538;48.836;9.174;2022-08-02T10:16:34;5.87;;;3.70;;
48743;SDS011;34538;48.836;9.174;2022-08-02T10:19:02;5.43;;;3.20;;
48743;SDS011;34538;48.836;9.174;2022-08-02T10:26:54;4.05;;;2.95;;
48743;SDS011;34538;48.836;9.174;2022-08-02T10:29:43;5.97;;;3.70;;
48743;SDS011;34538;48.836;9.174;2022-08-02T10:32:10;4.95;;;3.42;;
48743;SDS011;34538;48.836;9.174;2022-08-02T10:34:54;5.28;;;2.95;;
48743;SDS011;34538;48.836;9.174;2022-08-02T10:37:27;8.35;;;3.55;;
48743;SDS011;34538;48.836;9.174;2022-08-02T10:39:56;4.63;;;3.33;;
48743;SDS011;34538;48.836;9.174;2022-08-02T10:42:41;4.55;;;3.10;;
48743;SDS011;34538;48.836;9.174;2022-08-02T10:45:11;4.82;;;2.75;;
48743;SDS011;34538;48.836;9.174;2022-08-02T10:48:11;8.30;;;3.28;;
48743;SDS011;34538;48.836;9.174;2022-08-02T10:55:54;4.68;;;2.90;;
48743;SDS011;34538;48.836;9.174;2022-08-02T10:58:30;3.38;;;2.58;;
48743;SDS011;34538;48.836;9.174;2022-08-02T11:01:02;4.85;;;3.00;;
48743;SDS011;34538;48.836;9.174;2022-08-02T11:03:46;3.83;;;2.70;;
48743;SDS011;34538;48.836;9.174;2022-08-02T11:06:13;4.30;;;2.90;;
48743;SDS011;34538;48.836;9.174;2022-08-02T11:08:39;3.78;;;2.58;;
48743;SDS011;34538;48.836;9.174;2022-08-02T11:19:21;4.20;;;2.60;;
48743;SDS011;34538;48.836;9.174;2022-08-02T11:22:03;3.95;;;2.70;;
48743;SDS011;34538;48.836;9.174;2022-08-02T11:24:33;4.70;;;3.25;;
48743;SDS011;34538;48.836;9.174;2022-08-02T11:27:04;6.35;;;3.00;;
48743;SDS011;34538;48.836;9.174;2022-08-02T11:29:35;5.28;;;2.88;;
48743;SDS011;34538;48.836;9.174;2022-08-02T11:32:19;4.88;;;3.22;;
48743;SDS011;34538;48.836;9.174;2022-08-02T11:34:50;4.38;;;3.13;;
48743;SDS011;34538;48.836;9.174;2022-08-02T11:40:16;4.38;;;2.70;;
48743;SDS011;34538;48.836;9.174;2022-08-02T11:42:43;3.97;;;2.80;;
48743;SDS011;34538;48.836;9.174;2022-08-02T11:45:14;3.00;;;2.40;;
48743;SDS011;34538;48.836;9.174;2022-08-02T11:47:44;3.55;;;2.30;;
48743;SDS011;34538;48.836;9.174;2022-08-02T11:50:10;3.60;;;2.30;;
48743;SDS011;34538;48.836;9.174;2022-08-02T11:53:01;4.07;;;2.65;;
48743;SDS011;34538;48.836;9.174;2022-08-02T11:55:36;4.32;;;3.20;;
48743;SDS011;34538;48.836;9.174;2022-08-02T11:58:02;3.97;;;2.53;;
48743;SDS011;34538;48.836;9.174;2022-08-02T12:00:29;3.28;;;2.72;;
48743;SDS011;34538;48.836;9.174;2022-08-02T12:02:54;2.97;;;2.50;;
48743;SDS011;34538;48.836;9.174;2022-08-02T12:05:21;3.20;;;2.22;;
48743;SDS011;34538;48.836;9.174;2022-08-02T12:07:51;3.70;;;2.40;;
48743;SDS011;34538;48.836;9.174;2022-08-02T12:10:18;3.67;;;2.33;;
48743;SDS011;34538;48.836;9.174;2022-08-02T12:15:13;5.15;;;2.70;;
48743;SDS011;34538;48.836;9.174;2022-08-02T12:17:39;3.17;;;2.40;;
48743;SDS011;34538;48.836;9.174;2022-08-02T12:20:33;3.47;;;2.35;;
48743;SDS011;34538;48.836;9.174;2022-08-02T12:23:01;3.03;;;2.25;;
48743;SDS011;34538;48.836;9.174;2022-08-02T12:25:27;3.08;;;2.20;;
48743;SDS011;34538;48.836;9.174;2022-08-02T12:28:11;2.47;;;2.05;;
48743;SDS011;34538;48.836;9.174;2022-08-02T12:30:53;4.97;;;2.47;;
48743;SDS011;34538;48.836;9.174;2022-08-02T12:33:20;3.95;;;2.20;;
48743;SDS011;34538;48.836;9.174;2022-08-02T12:35:47;4.05;;;2.00;;
48743;SDS011;34538;48.836;9.174;2022-08-02T12:38:13;2.97;;;2.00;;
48743;SDS011;34538;48.836;9.174;2022-08-02T12:40:38;4.43;;;2.10;;
48743;SDS011;34538;48.836;9.174;2022-08-02T12:43:05;2.72;;;1.75;;
48743;SDS011;34538;48.836;9.174;2022-08-02T12:48:39;4.20;;;2.10;;
48743;SDS011;34538;48.836;9.174;2022-08-02T12:51:24;3.58;;;2.20;;
48743;SDS011;34538;48.836;9.174;2022-08-02T12:53:53;2.08;;;1.80;;
48743;SDS011;34538;48.836;9.174;2022-08-02T12:56:36;3.22;;;1.92;;
48743;SDS011;34538;48.836;9.174;2022-08-02T12:59:03;2.90;;;2.20;;
48743;SDS011;34538;48.836;9.174;2022-08-02T13:01:28;4.03;;;2.13;;
48743;SDS011;34538;48.836;9.174;2022-08-02T13:03:55;2.40;;;2.00;;
48743;SDS011;34538;48.836;9.174;2022-08-02T13:06:21;3.35;;;2.45;;
48743;SDS011;34538;48.836;9.174;2022-08-02T13:08:47;2.25;;;1.98;;
48743;SDS011;34538;48.836;9.174;2022-08-02T13:11:14;2.75;;;2.05;;
48743;SDS011;34538;48.836;9.174;2022-08-02T13:13:40;2.92;;;2.00;;
48743;SDS011;34538;48.836;9.174;2022-08-02T13:16:06;2.20;;;1.85;;
48743;SDS011;34538;48.836;9.174;2022-08-02T13:18:33;3.30;;;1.95;;
48743;SDS011;34538;48.836;9.174;2022-08-02T13:20:59;2.53;;;1.90;;
48743;SDS011;34538;48.836;9.174;2022-08-02T13:23:25;3.03;;;1.80;;
48743;SDS011;34538;48.836;9.174;2022-08-02T13:25:50;2.03;;;1.83;;
48743;SDS011;34538;48.836;9.174;2022-08-02T13:28:19;2.13;;;1.65;;
48743;SDS011;34538;48.836;9.174;2022-08-02T13:30:44;2.47;;;1.88;;
48743;SDS011;34538;48.836;9.174;2022-08-02T13:33:11;2.92;;;1.80;;
48743;SDS011;34538;48.836;9.174;2022-08-02T13:35:37;3.17;;;1.65;;
48743;SDS011;34538;48.836;9.174;2022-08-02T13:38:02;3.15;;;1.85;;
48743;SDS011;34538;48.836;9.174;2022-08-02T13:40:30;2.00;;;1.80;;
48743;SDS011;34538;48.836;9.174;2022-08-02T13:42:56;3.53;;;1.80;;
48743;SDS011;34538;48.836;9.174;2022-08-02T13:45:22;2.75;;;1.75;;
48743;SDS011;34538;48.836;9.174;2022-08-02T13:47:48;2.70;;;2.00;;
48743;SDS011;34538;48.836;9.174;2022-08-02T13:50:14;2.50;;;1.80;;
48743;SDS011;34538;48.836;9.174;2022-08-02T13:52:40;4.38;;;1.80;;
48743;SDS011;34538;48.836;9.174;2022-08-02T13:55:06;2.90;;;1.80;;
48743;SDS011;34538;48.836;9.174;2022-08-02T13:57:32;5.22;;;1.80;;
48743;SDS011;34538;48.836;9.174;2022-08-02T13:59:58;2.55;;;1.70;;
48743;SDS011;34538;48.836;9.174;2022-08-02T14:02:27;1.85;;;1.65;;
48743;SDS011;34538;48.836;9.174;2022-08-02T14:04:53;2.55;;;1.52;;
48743;SDS011;34538;48.836;9.174;2022-08-02T14:07:19;2.50;;;1.60;;
48743;SDS011;34538;48.836;9.174;2022-08-02T14:09:45;2.35;;;1.73;;
48743;SDS011;34538;48.836;9.174;2022-08-02T14:12:11;2.65;;;1.92;;
48743;SDS011;34538;48.836;9.174;2022-08-02T14:14:37;2.17;;;1.63;;
48743;SDS011;34538;48.836;9.174;2022-08-02T14:17:03;1.80;;;1.70;;
48743;SDS011;34538;48.836;9.174;2022-08-02T14:19:28;2.80;;;1.73;;
48743;SDS011;34538;48.836;9.174;2022-08-02T14:21:54;2.33;;;1.92;;
48743;SDS011;34538;48.836;9.174;2022-08-02T14:24:20;2.08;;;1.80;;
48743;SDS011;34538;48.836;9.174;2022-08-02T14:26:46;2.55;;;1.80;;
48743;SDS011;34538;48.836;9.174;2022-08-02T14:29:12;2.17;;;1.40;;
48743;SDS011;34538;48.836;9.174;2022-08-02T14:31:39;2.17;;;1.63;;
48743;SDS011;34538;48.836;9.174;2022-08-02T14:34:05;2.83;;;1.70;;
48743;SDS011;34538;48.836;9.174;2022-08-02T14:36:31;2.63;;;1.60;;
48743;SDS011;34538;48.836;9.174;2022-08-02T14:38:56;1.60;;;1.50;;
48743;SDS011;34538;48.836;9.174;2022-08-02T14:41:22;2.17;;;1.65;;
48743;SDS011;34538;48.836;9.174;2022-08-02T14:43:48;3.78;;;1.80;;
48743;SDS011;34538;48.836;9.174;2022-08-02T14:46:32;3.20;;;1.85;;
48743;SDS011;34538;48.836;9.174;2022-08-02T14:48:59;2.20;;;1.90;;
48743;SDS011;34538;48.836;9.174;2022-08-02T14:51:26;6.40;;;1.83;;
48743;SDS011;34538;48.836;9.174;2022-08-02T14:53:53;3.08;;;1.80;;
48743;SDS011;34538;48.836;9.174;2022-08-02T14:56:19;1.92;;;1.52;;
48743;SDS011;34538;48.836;9.174;2022-08-02T14:58:44;3.60;;;1.90;;
48743;SDS011;34538;48.836;9.174;2022-08-02T15:01:10;3.95;;;1.77;;
48743;SDS011;34538;48.836;9.174;2022-08-02T15:03:36;2.65;;;1.73;;
48743;SDS011;34538;48.836;9.174;2022-08-02T15:06:01;3.88;;;1.90;;
48743;SDS011;34538;48.836;9.174;2022-08-02T15:08:27;2.47;;;2.00;;
48743;SDS011;34538;48.836;9.174;2022-08-02T15:10:53;3.53;;;1.48;;
48743;SDS011;34538;48.836;9.174;2022-08-02T15:13:18;2.97;;;1.65;;
48743;SDS011;34538;48.836;9.174;2022-08-02T15:15:44;4.15;;;1.75;;
48743;SDS011;34538;48.836;9.174;2022-08-02T15:18:10;2.25;;;1.63;;
48743;SDS011;34538;48.836;9.174;2022-08-02T15:20:37;3.35;;;2.15;;
48743;SDS011;34538;48.836;9.174;2022-08-02T15:23:02;3.13;;;1.70;;
48743;SDS011;34538;48.836;9.174;2022-08-02T15:25:28;2.00;;;1.80;;
48743;SDS011;34538;48.836;9.174;2022-08-02T15:27:53;4.35;;;2.00;;
48743;SDS011;34538;48.836;9.174;2022-08-02T15:30:19;8.23;;;2.00;;
48743;SDS011;34538;48.836;9.174;2022-08-02T15:32:45;2.97;;;1.45;;
48743;SDS011;34538;48.836;9.174;2022-08-02T15:35:11;2.67;;;1.73;;
48743;SDS011;34538;48.836;9.174;2022-08-02T15:37:37;3.33;;;1.67;;